Flight Track Log - Related Links

Times and Time Zones

All times are in EST time to prevent confusion due to time zone crossing. See the AAR8739 flight status page for this flight to view local times or setup timezone preferences in your user account.

Time Position Orientation Groundspeed Altitude Reporting Facility
EST Latitude Longitude Course Direction KTS MPH feet Rate Location/Type
Sat 09:40:00 PM 37.3250 126.8637 166° South  Level Estimated
Sat 09:41:00 PM 37.2472 126.8880 166° South  Level Estimated
Sat 09:41:50 PM 37.3820 126.6790 166° South 374 430 15,300  Level FlightAware ADS-B
Sat 09:42:00 PM 37.1695 126.9122 166° South  Level Estimated
Sat 09:42:15 PM 37.3360 126.6890 170° South 396 456 16,300  Level FlightAware ADS-B
Sat 09:43:15 PM 37.2280 126.7130 170° South 407 468 18,700 2,333 Climbing FlightAware ADS-B
Sat 09:43:45 PM 37.1700 126.7260 170° South 428 493 19,800 2,720 Climbing FlightAware ADS-B
Sat 09:44:30 PM 37.0840 126.7450 170° South 426 490 22,100 2,810 Climbing FlightAware ADS-B
Sat 09:45:04 PM 37.0120 126.7610 170° South 426 490 23,500 1,135 Climbing FlightAware ADS-B
Sat 09:45:44 PM 36.9460 126.7770 169° South 426 490 23,500 395 Level FlightAware ADS-B
Sat 09:46:20 PM 36.8650 126.7930 171° South 422 486 24,000 288 Climbing FlightAware ADS-B
Sat 09:47:28 PM 36.7440 126.8200 170° South 422 486 24,000  Level FlightAware ADS-B
Sat 09:48:18 PM 36.6620 126.8380 170° South 422 486 24,000  Level FlightAware ADS-B
Sat 09:49:06 PM 36.5840 126.8550 170° South 422 486 24,000  Level FlightAware ADS-B
Sat 09:49:54 PM 36.5060 126.8720 170° South 422 486 24,000  Level FlightAware ADS-B
Sat 09:50:43 PM 36.4250 126.8900 170° South 422 486 24,000  Level FlightAware ADS-B
Sat 09:53:00 PM 36.2537 126.9699 159° South  Level Estimated
Sat 09:54:00 PM 36.1787 127.0048 159° South  Level Estimated
Sat 09:55:00 PM 36.1036 127.0396 159° South  Level Estimated
Sat 09:56:00 PM 36.0286 127.0743 159° South  Level Estimated
Sat 09:57:00 PM 35.9535 127.1090 159° South  Level Estimated
Sat 09:58:00 PM 35.8784 127.1436 160° South  Level Estimated
Sat 09:59:00 PM 35.8033 127.1781 160° South  Level Estimated
Sat 10:00:00 PM 35.7282 127.2126 160° South  Level Estimated
Sat 10:01:00 PM 35.6531 127.2470 160° South  Level Estimated
Sat 10:02:00 PM 35.5780 127.2814 160° South  Level Estimated
Sat 10:03:00 PM 35.5029 127.3156 160° South  Level Estimated
Sat 10:04:00 PM 35.4278 127.3499 160° South  Level Estimated
Sat 10:05:00 PM 35.3526 127.3840 160° South  Level Estimated
Sat 10:06:00 PM 35.2775 127.4181 160° South  Level Estimated
Sat 10:07:00 PM 35.2023 127.4521 160° South  Level Estimated
Sat 10:08:00 PM 35.1272 127.4861 160° South  Level Estimated
Sat 10:09:00 PM 35.0520 127.5200 160° South  Level Estimated
Sat 10:10:00 PM 34.9768 127.5538 160° South  Level Estimated
Sat 10:11:00 PM 34.9016 127.5876 160° South  Level Estimated
Sat 10:12:00 PM 34.8398 127.6153 160° South  Level Estimated
Sat 10:13:00 PM 34.8398 127.6153 180° South  Level Estimated
Sat 10:14:00 PM 34.8398 127.6153 180° South  Level Estimated
Sat 10:15:00 PM 34.8398 127.6153 180° South  Level Estimated
Sat 10:16:00 PM 34.8398 127.6153 180° South  Level Estimated
Sat 10:17:00 PM 34.8398 127.6153 180° South  Level Estimated
Sat 10:18:00 PM 34.8398 127.6153 180° South  Level Estimated
Sat 10:19:00 PM 34.8398 127.6153 180° South  Level Estimated
Sat 10:20:00 PM 34.8398 127.6153 180° South  Level Estimated
Sat 10:21:00 PM 34.8398 127.6153 180° South  Level Estimated
Sat 10:22:00 PM 34.8398 127.6153 180° South  Level Estimated
Sat 10:23:00 PM 34.8398 127.6153 180° South  Level Estimated
Sat 10:24:00 PM 34.8398 127.6153 180° South  Level Estimated
Sat 10:25:00 PM 34.8398 127.6153 180° South  Level Estimated
Sat 10:26:00 PM 34.8398 127.6153 180° South  Level Estimated
Sat 10:27:00 PM 34.8398 127.6153 180° South  Level Estimated
Sat 10:28:00 PM 34.8398 127.6153 180° South  Level Estimated

Login

Don't have an account? Register now (free) for customized features, flight alerts, and more!